createdAt,value
2024-04-21T00:01:22.891Z,1.73
2024-04-21T00:03:50.388Z,1.50
2024-04-21T00:06:17.356Z,1.63
2024-04-21T00:08:44.162Z,1.38
2024-04-21T00:11:11.150Z,1.35
2024-04-21T00:13:38.127Z,1.80
2024-04-21T00:16:05.170Z,1.60
2024-04-21T00:18:32.320Z,1.30
2024-04-21T00:20:59.121Z,1.58
2024-04-21T00:23:25.808Z,1.60
2024-04-21T00:25:59.529Z,1.73
2024-04-21T00:28:26.548Z,1.80
2024-04-21T00:30:53.377Z,1.80
2024-04-21T00:33:20.457Z,1.30
2024-04-21T00:35:47.552Z,1.50
2024-04-21T00:38:15.177Z,1.52
2024-04-21T00:40:42.541Z,1.98
2024-04-21T00:43:10.999Z,1.55
2024-04-21T00:45:47.843Z,1.60
2024-04-21T00:48:15.711Z,1.88
2024-04-21T00:50:47.612Z,1.30
2024-04-21T00:53:17.741Z,1.90
2024-04-21T00:55:44.885Z,1.38
2024-04-21T00:58:14.142Z,1.55
2024-04-21T01:00:42.092Z,1.55
2024-04-21T01:03:08.868Z,1.52
2024-04-21T01:05:35.662Z,2.00
2024-04-21T01:08:02.550Z,1.50
2024-04-21T01:10:29.326Z,1.83
2024-04-21T01:12:56.310Z,1.50
2024-04-21T01:15:26.587Z,1.63
2024-04-21T01:17:56.355Z,1.67
2024-04-21T01:20:23.629Z,1.90
2024-04-21T01:22:50.883Z,1.77
2024-04-21T01:25:18.317Z,1.40
2024-04-21T01:27:45.501Z,1.70
2024-04-21T01:30:12.813Z,2.00
2024-04-21T01:32:40.858Z,1.45
2024-04-21T01:35:08.002Z,1.60
2024-04-21T01:37:36.560Z,2.03
2024-04-21T01:40:07.709Z,1.70
2024-04-21T01:42:34.608Z,2.08
2024-04-21T01:45:01.881Z,1.48
2024-04-21T01:47:28.728Z,1.88
2024-04-21T01:49:57.091Z,1.70
2024-04-21T01:52:27.811Z,2.50
2024-04-21T01:54:54.584Z,1.73
2024-04-21T01:57:25.376Z,1.88
2024-04-21T01:59:55.265Z,2.10
2024-04-21T02:02:24.251Z,1.88
2024-04-21T02:04:51.808Z,2.17
2024-04-21T02:07:19.841Z,1.90
2024-04-21T02:09:46.646Z,2.05
2024-04-21T02:12:13.381Z,2.28
2024-04-21T02:14:40.137Z,2.08
2024-04-21T02:17:07.089Z,2.28
2024-04-21T02:19:34.054Z,1.98
2024-04-21T02:22:02.065Z,1.70
2024-04-21T02:24:40.552Z,1.80
2024-04-21T02:27:10.708Z,1.65
2024-04-21T02:29:37.987Z,1.70
2024-04-21T02:32:07.593Z,1.70
2024-04-21T02:34:36.741Z,1.17
2024-04-21T02:37:03.670Z,1.23
2024-04-21T02:39:30.967Z,1.60
2024-04-21T02:41:57.771Z,1.00
2024-04-21T02:44:24.464Z,1.00
2024-04-21T02:46:51.287Z,1.17
2024-04-21T02:49:18.126Z,1.35
2024-04-21T02:51:44.903Z,1.00
2024-04-21T02:54:11.837Z,1.00
2024-04-21T02:56:38.806Z,0.90
2024-04-21T02:59:05.757Z,0.90
2024-04-21T03:01:32.682Z,0.98
2024-04-21T03:03:59.670Z,1.10
2024-04-21T03:06:26.514Z,1.38
2024-04-21T03:08:56.201Z,1.10
2024-04-21T03:11:23.127Z,1.00
2024-04-21T03:13:49.962Z,1.08
2024-04-21T03:16:24.338Z,1.10
2024-04-21T03:18:51.110Z,1.08
2024-04-21T03:21:18.283Z,0.80
2024-04-21T03:23:45.124Z,1.05
2024-04-21T03:26:17.504Z,1.00
2024-04-21T03:28:46.427Z,1.00
2024-04-21T03:31:13.576Z,1.00
2024-04-21T03:33:45.629Z,1.02
2024-04-21T03:36:12.539Z,0.95
2024-04-21T03:38:39.911Z,1.13
2024-04-21T03:41:10.761Z,0.90
2024-04-21T03:43:38.006Z,0.80
2024-04-21T03:46:04.882Z,1.00
2024-04-21T03:48:37.460Z,0.95
2024-04-21T03:51:04.515Z,0.82
2024-04-21T03:53:31.497Z,0.70
2024-04-21T03:55:58.538Z,0.50
2024-04-21T03:58:25.700Z,0.90
2024-04-21T04:00:52.565Z,0.90
2024-04-21T04:03:19.482Z,0.93
2024-04-21T04:05:47.331Z,0.73
2024-04-21T04:08:14.392Z,0.82
2024-04-21T04:10:44.464Z,0.47
2024-04-21T04:13:11.779Z,0.70
2024-04-21T04:15:39.598Z,0.80
2024-04-21T04:18:06.734Z,0.85
2024-04-21T04:20:36.585Z,0.60
2024-04-21T04:23:05.123Z,0.80
2024-04-21T04:25:31.872Z,0.80
2024-04-21T04:27:58.588Z,0.70
2024-04-21T04:30:25.443Z,0.70
2024-04-21T04:32:52.264Z,0.70
2024-04-21T04:35:19.119Z,1.02
2024-04-21T04:37:45.894Z,1.00
2024-04-21T04:40:12.939Z,1.00
2024-04-21T04:42:39.648Z,0.75
2024-04-21T04:45:06.695Z,1.00
2024-04-21T04:47:33.591Z,0.90
2024-04-21T04:50:00.671Z,0.70
2024-04-21T04:52:27.414Z,0.68
2024-04-21T04:54:54.182Z,0.70
2024-04-21T04:57:20.918Z,0.80
2024-04-21T04:59:47.631Z,0.63
2024-04-21T05:02:14.364Z,0.60
2024-04-21T05:04:41.279Z,0.60
2024-04-21T05:07:09.688Z,0.80
2024-04-21T05:09:37.998Z,0.73
2024-04-21T05:12:05.201Z,0.57
2024-04-21T05:14:31.908Z,0.45
2024-04-21T05:16:58.621Z,0.52
2024-04-21T05:19:25.410Z,0.50
2024-04-21T05:21:52.269Z,0.75
2024-04-21T05:24:19.531Z,0.70
2024-04-21T05:26:46.371Z,0.70
2024-04-21T05:29:13.243Z,0.43
2024-04-21T05:31:43.087Z,0.60
2024-04-21T05:34:09.987Z,0.60
2024-04-21T05:36:36.856Z,0.43
2024-04-21T05:39:03.707Z,0.35
2024-04-21T05:41:30.553Z,0.40
2024-04-21T05:43:57.628Z,0.30
2024-04-21T05:46:24.544Z,0.22
2024-04-21T05:48:51.558Z,0.30
2024-04-21T05:51:18.437Z,0.73
2024-04-21T05:53:45.286Z,0.50
2024-04-21T05:56:12.212Z,0.60
2024-04-21T05:58:39.052Z,0.45
2024-04-21T06:01:05.934Z,0.95
2024-04-21T06:03:32.871Z,0.20
2024-04-21T06:05:59.684Z,0.50
2024-04-21T06:08:26.509Z,0.60
2024-04-21T06:10:57.596Z,0.68
2024-04-21T06:13:25.578Z,0.60
2024-04-21T06:15:52.579Z,0.40
2024-04-21T06:18:19.616Z,0.40
2024-04-21T06:20:46.462Z,0.40
2024-04-21T06:23:13.755Z,0.47
2024-04-21T06:25:40.616Z,0.20
2024-04-21T06:28:07.469Z,0.50
2024-04-21T06:30:34.462Z,0.60
2024-04-21T06:33:01.331Z,0.60
2024-04-21T06:35:28.045Z,0.40
2024-04-21T06:37:54.830Z,0.40
2024-04-21T06:40:21.570Z,0.40
2024-04-21T06:42:49.309Z,0.40
2024-04-21T06:45:16.173Z,0.40
2024-04-21T06:47:42.930Z,0.32
2024-04-21T06:50:09.914Z,0.30
2024-04-21T06:52:36.727Z,0.45
2024-04-21T06:55:03.532Z,0.50
2024-04-21T06:57:30.733Z,0.40
2024-04-21T06:59:57.448Z,0.60
2024-04-21T07:02:24.242Z,0.55
2024-04-21T07:04:50.994Z,0.60
2024-04-21T07:07:18.905Z,0.80
2024-04-21T07:09:45.861Z,0.65
2024-04-21T07:12:12.605Z,0.60
2024-04-21T07:14:39.316Z,0.70
2024-04-21T07:17:06.066Z,0.88
2024-04-21T07:19:32.836Z,0.70
2024-04-21T07:22:00.270Z,0.70
2024-04-21T07:24:27.108Z,0.70
2024-04-21T07:26:54.718Z,1.17
2024-04-21T07:29:23.685Z,1.20
2024-04-21T07:31:50.709Z,0.88
2024-04-21T07:34:17.485Z,0.93
2024-04-21T07:36:44.292Z,0.82
2024-04-21T07:39:11.360Z,0.90
2024-04-21T07:41:41.661Z,0.80
2024-04-21T07:44:08.582Z,0.80
2024-04-21T07:46:35.559Z,0.85
2024-04-21T07:49:03.274Z,0.85
2024-04-21T07:51:30.080Z,0.90
2024-04-21T07:53:57.029Z,1.00
2024-04-21T07:56:23.822Z,1.10
2024-04-21T07:58:53.753Z,0.82
2024-04-21T08:01:20.613Z,0.77
2024-04-21T08:03:53.573Z,0.95
2024-04-21T08:06:20.345Z,1.08
2024-04-21T08:08:50.636Z,0.90
2024-04-21T08:11:20.536Z,1.02
2024-04-21T08:13:47.604Z,0.90
2024-04-21T08:16:14.516Z,1.10
2024-04-21T08:18:43.570Z,1.05
2024-04-21T08:21:10.580Z,1.00
2024-04-21T08:23:37.464Z,0.90
2024-04-21T08:26:05.026Z,0.98
2024-04-21T08:28:31.940Z,0.88
2024-04-21T08:30:58.770Z,0.88
2024-04-21T08:33:27.698Z,1.02
2024-04-21T08:35:55.864Z,1.30
2024-04-21T08:38:24.619Z,1.13
2024-04-21T08:40:52.639Z,1.20
2024-04-21T08:43:26.373Z,1.15
2024-04-21T08:45:55.281Z,1.13
2024-04-21T08:48:27.082Z,1.38
2024-04-21T08:50:56.724Z,1.00
2024-04-21T08:53:24.279Z,1.02
2024-04-21T08:55:51.901Z,0.70
2024-04-21T08:58:20.096Z,0.73
2024-04-21T09:00:47.332Z,0.88
2024-04-21T09:03:17.494Z,1.00
2024-04-21T09:05:45.017Z,1.10
2024-04-21T09:08:11.813Z,1.17
2024-04-21T09:10:38.715Z,1.00
2024-04-21T09:13:05.678Z,0.80
2024-04-21T09:15:33.556Z,0.82
2024-04-21T09:18:01.944Z,0.93
2024-04-21T09:20:29.113Z,1.10
2024-04-21T09:22:55.966Z,1.13
2024-04-21T09:25:24.281Z,0.80
2024-04-21T09:27:51.349Z,1.15
2024-04-21T09:30:19.725Z,1.08
2024-04-21T09:32:47.074Z,0.90
2024-04-21T09:35:14.156Z,0.90
2024-04-21T09:37:48.158Z,0.90
2024-04-21T09:40:16.705Z,1.00
2024-04-21T09:42:45.305Z,1.00
2024-04-21T09:45:14.722Z,1.08
2024-04-21T09:47:43.593Z,0.90
2024-04-21T09:50:12.615Z,0.88
2024-04-21T09:52:40.074Z,0.80
2024-04-21T09:55:07.671Z,0.80
2024-04-21T09:57:35.850Z,0.82
2024-04-21T10:00:10.114Z,0.75
2024-04-21T10:02:39.377Z,0.55
2024-04-21T10:05:13.290Z,0.70
2024-04-21T10:07:44.784Z,0.77
2024-04-21T10:10:21.795Z,0.70
2024-04-21T10:12:49.994Z,0.80
2024-04-21T10:15:19.892Z,0.85
2024-04-21T10:18:04.953Z,0.63
2024-04-21T10:20:38.999Z,0.82
2024-04-21T10:23:11.438Z,0.82
2024-04-21T10:25:45.355Z,0.70
2024-04-21T10:28:14.046Z,1.00
2024-04-21T10:30:41.275Z,0.68
2024-04-21T10:33:11.494Z,0.52
2024-04-21T10:35:40.342Z,0.60
2024-04-21T10:38:15.441Z,0.77
2024-04-21T10:40:46.591Z,0.70
2024-04-21T10:43:13.919Z,0.50
2024-04-21T10:45:40.771Z,0.60
2024-04-21T10:48:09.514Z,0.60
2024-04-21T10:50:38.543Z,0.80
2024-04-21T10:53:06.798Z,0.70
2024-04-21T10:55:36.795Z,0.60
2024-04-21T10:58:08.108Z,0.50
2024-04-21T11:00:39.306Z,0.50
2024-04-21T11:03:07.075Z,0.60
2024-04-21T11:05:43.312Z,0.90
2024-04-21T11:08:10.282Z,0.60
2024-04-21T11:10:37.084Z,0.80
2024-04-21T11:13:07.171Z,0.73
2024-04-21T11:15:40.870Z,0.85
2024-04-21T11:18:10.002Z,0.70
2024-04-21T11:20:37.383Z,0.70
2024-04-21T11:23:04.375Z,0.60
2024-04-21T11:25:31.387Z,0.77
2024-04-21T11:27:58.116Z,1.02
2024-04-21T11:30:26.310Z,0.70
2024-04-21T11:32:53.254Z,0.70
2024-04-21T11:35:20.543Z,0.93
2024-04-21T11:37:53.029Z,0.90
2024-04-21T11:40:21.927Z,0.65
2024-04-21T11:42:48.988Z,0.85
2024-04-21T11:45:29.121Z,0.73
2024-04-21T11:47:57.073Z,0.80
2024-04-21T11:50:25.529Z,0.70
2024-04-21T11:52:52.826Z,0.90
2024-04-21T11:55:19.651Z,0.68
2024-04-21T11:57:46.768Z,0.98
2024-04-21T12:00:14.953Z,0.73
2024-04-21T12:02:41.794Z,0.55
2024-04-21T12:05:08.674Z,0.70
2024-04-21T12:07:35.435Z,0.50
2024-04-21T12:10:02.253Z,0.90
2024-04-21T12:12:29.066Z,0.80
2024-04-21T12:14:55.757Z,0.60
2024-04-21T12:17:23.257Z,0.57
2024-04-21T12:19:51.010Z,0.70
2024-04-21T12:22:18.037Z,0.88
2024-04-21T12:24:44.724Z,0.73
2024-04-21T12:27:11.422Z,0.60
2024-04-21T12:29:38.088Z,0.70
2024-04-21T12:32:05.308Z,0.65
2024-04-21T12:34:32.191Z,0.85
2024-04-21T12:36:58.939Z,0.80
2024-04-21T12:39:26.036Z,0.60
2024-04-21T12:41:53.018Z,0.52
2024-04-21T12:44:19.796Z,0.50
2024-04-21T12:46:49.803Z,0.77
2024-04-21T12:49:16.749Z,0.80
2024-04-21T12:51:47.366Z,0.63
2024-04-21T12:54:16.606Z,0.50
2024-04-21T12:56:44.617Z,0.60
2024-04-21T12:59:11.295Z,0.70
2024-04-21T13:01:38.079Z,0.60
2024-04-21T13:04:05.621Z,0.70
2024-04-21T13:06:32.382Z,0.50
2024-04-21T13:08:59.035Z,0.40
2024-04-21T13:11:25.848Z,0.75
2024-04-21T13:13:53.211Z,0.60
2024-04-21T13:16:19.957Z,0.50
2024-04-21T13:18:46.750Z,0.70
2024-04-21T13:21:13.534Z,0.50
2024-04-21T13:23:42.620Z,0.50
2024-04-21T13:26:09.829Z,0.50
2024-04-21T13:28:36.578Z,0.50
2024-04-21T13:31:03.581Z,0.63
2024-04-21T13:33:30.443Z,0.50
2024-04-21T13:35:57.210Z,0.60
2024-04-21T13:38:23.935Z,0.47
2024-04-21T13:40:50.722Z,0.65
2024-04-21T13:43:17.427Z,0.47
2024-04-21T13:45:44.415Z,0.57
2024-04-21T13:48:11.169Z,0.68
2024-04-21T13:50:37.927Z,0.50
2024-04-21T13:53:04.882Z,0.43
2024-04-21T13:55:31.729Z,0.38
2024-04-21T13:57:58.508Z,0.75
2024-04-21T14:00:25.526Z,0.50
2024-04-21T14:02:52.320Z,0.30
2024-04-21T14:05:19.222Z,0.50
2024-04-21T14:07:45.921Z,0.40
2024-04-21T14:10:12.632Z,0.55
2024-04-21T14:12:39.402Z,0.50
2024-04-21T14:15:06.390Z,0.45
2024-04-21T14:17:33.205Z,0.55
2024-04-21T14:20:00.002Z,0.50
2024-04-21T14:22:26.731Z,0.40
2024-04-21T14:24:53.548Z,0.30
2024-04-21T14:27:20.312Z,0.32
2024-04-21T14:29:50.508Z,0.30
2024-04-21T14:32:19.735Z,0.43
2024-04-21T14:34:46.441Z,0.30
2024-04-21T14:37:13.202Z,0.40
2024-04-21T14:39:39.928Z,0.40
2024-04-21T14:42:06.694Z,0.30
2024-04-21T14:44:37.731Z,0.35
2024-04-21T14:47:05.364Z,0.45
2024-04-21T14:49:32.609Z,0.40
2024-04-21T14:51:59.423Z,0.40
2024-04-21T14:54:26.117Z,0.40
2024-04-21T14:56:54.999Z,0.35
2024-04-21T14:59:23.131Z,0.40
2024-04-21T15:01:49.953Z,0.20
2024-04-21T15:04:18.964Z,0.30
2024-04-21T15:06:46.093Z,0.30
2024-04-21T15:09:12.789Z,0.30
2024-04-21T15:11:39.673Z,0.25
2024-04-21T15:14:06.413Z,0.15
2024-04-21T15:16:36.252Z,0.28
2024-04-21T15:19:04.989Z,0.30
2024-04-21T15:21:31.726Z,0.30
2024-04-21T15:23:58.413Z,0.30
2024-04-21T15:26:25.091Z,0.20
2024-04-21T15:28:51.788Z,0.30
2024-04-21T15:31:18.599Z,0.30
2024-04-21T15:33:45.626Z,0.40
2024-04-21T15:36:14.312Z,0.32
2024-04-21T15:38:41.094Z,0.40
2024-04-21T15:41:08.512Z,0.20
2024-04-21T15:43:35.364Z,0.20
2024-04-21T15:46:02.360Z,0.45
2024-04-21T15:48:32.225Z,0.52
2024-04-21T15:50:59.005Z,0.43
2024-04-21T15:53:25.710Z,0.40
2024-04-21T15:55:52.565Z,0.50
2024-04-21T15:58:19.522Z,0.30
2024-04-21T16:00:47.248Z,0.40
2024-04-21T16:03:14.052Z,0.30
2024-04-21T16:05:42.645Z,0.30
2024-04-21T16:08:09.786Z,0.40
2024-04-21T16:10:36.712Z,0.40
2024-04-21T16:13:03.629Z,0.22
2024-04-21T16:15:30.428Z,0.30
2024-04-21T16:17:57.195Z,0.30
2024-04-21T16:20:24.023Z,0.47
2024-04-21T16:22:50.803Z,0.32
2024-04-21T16:25:17.711Z,0.40
2024-04-21T16:27:46.586Z,0.30
2024-04-21T16:30:13.464Z,0.43
2024-04-21T16:32:42.282Z,0.40
2024-04-21T16:35:10.303Z,0.40
2024-04-21T16:37:37.293Z,0.30
2024-04-21T16:40:04.475Z,0.47
2024-04-21T16:42:31.587Z,0.47
2024-04-21T16:44:58.720Z,0.40
2024-04-21T16:47:30.246Z,0.35
2024-04-21T16:49:57.707Z,0.40
2024-04-21T16:52:24.801Z,0.30
2024-04-21T16:54:51.814Z,0.30
2024-04-21T16:57:26.161Z,0.52
2024-04-21T16:59:53.255Z,0.20
2024-04-21T17:02:20.485Z,0.40
2024-04-21T17:04:49.223Z,0.40
2024-04-21T17:07:20.070Z,0.40
2024-04-21T17:09:49.478Z,0.40
2024-04-21T17:12:19.751Z,0.30
2024-04-21T17:14:46.579Z,0.35
2024-04-21T17:17:13.589Z,0.32
2024-04-21T17:19:40.384Z,0.45
2024-04-21T17:22:07.257Z,0.30
2024-04-21T17:24:34.033Z,0.20
2024-04-21T17:27:00.799Z,0.30
2024-04-21T17:29:27.473Z,0.52
2024-04-21T17:31:54.182Z,0.30
2024-04-21T17:34:20.935Z,0.20
2024-04-21T17:36:47.634Z,0.22
2024-04-21T17:39:14.382Z,0.40
2024-04-21T17:41:41.187Z,0.40
2024-04-21T17:44:07.937Z,0.40
2024-04-21T17:46:37.960Z,0.38
2024-04-21T17:49:04.763Z,0.30
2024-04-21T17:51:32.440Z,0.30
2024-04-21T17:53:59.136Z,0.40
2024-04-21T17:56:25.830Z,0.30
2024-04-21T17:58:52.502Z,0.40
2024-04-21T18:01:19.499Z,0.40
